sensor_id;sensor_type;location;lat;lon;timestamp;P1;durP1;ratioP1;P2;durP2;ratioP2
62941;SDS011;49042;47.318;19.874;2022-09-24T00:00:02;9.57;;;7.05;;
62941;SDS011;49042;47.318;19.874;2022-09-24T00:03:04;11.70;;;7.37;;
62941;SDS011;49042;47.318;19.874;2022-09-24T00:06:06;9.80;;;6.87;;
62941;SDS011;49042;47.318;19.874;2022-09-24T00:09:09;10.60;;;7.10;;
62941;SDS011;49042;47.318;19.874;2022-09-24T00:12:15;11.85;;;8.30;;
62941;SDS011;49042;47.318;19.874;2022-09-24T00:15:18;13.62;;;8.02;;
62941;SDS011;49042;47.318;19.874;2022-09-24T00:18:20;13.77;;;8.43;;
62941;SDS011;49042;47.318;19.874;2022-09-24T00:21:23;13.57;;;7.35;;
62941;SDS011;49042;47.318;19.874;2022-09-24T00:24:27;10.75;;;7.68;;
62941;SDS011;49042;47.318;19.874;2022-09-24T00:27:47;14.75;;;8.45;;
62941;SDS011;49042;47.318;19.874;2022-09-24T00:30:49;12.23;;;7.68;;
62941;SDS011;49042;47.318;19.874;2022-09-24T00:33:52;12.95;;;7.97;;
62941;SDS011;49042;47.318;19.874;2022-09-24T00:36:54;17.60;;;8.68;;
62941;SDS011;49042;47.318;19.874;2022-09-24T00:39:56;13.30;;;8.30;;
62941;SDS011;49042;47.318;19.874;2022-09-24T00:42:58;15.60;;;9.60;;
62941;SDS011;49042;47.318;19.874;2022-09-24T00:49:37;16.98;;;10.55;;
62941;SDS011;49042;47.318;19.874;2022-09-24T00:52:59;16.62;;;9.93;;
62941;SDS011;49042;47.318;19.874;2022-09-24T00:56:10;16.17;;;9.45;;
62941;SDS011;49042;47.318;19.874;2022-09-24T00:59:16;13.57;;;8.15;;
62941;SDS011;49042;47.318;19.874;2022-09-24T01:02:21;16.37;;;9.27;;
62941;SDS011;49042;47.318;19.874;2022-09-24T01:05:23;13.57;;;8.65;;
62941;SDS011;49042;47.318;19.874;2022-09-24T01:08:24;14.82;;;8.88;;
62941;SDS011;49042;47.318;19.874;2022-09-24T01:11:44;14.25;;;8.80;;
62941;SDS011;49042;47.318;19.874;2022-09-24T01:18:06;12.35;;;8.60;;
62941;SDS011;49042;47.318;19.874;2022-09-24T01:21:14;13.50;;;8.40;;
62941;SDS011;49042;47.318;19.874;2022-09-24T01:31:17;13.73;;;8.75;;
62941;SDS011;49042;47.318;19.874;2022-09-24T01:34:43;15.13;;;8.43;;
62941;SDS011;49042;47.318;19.874;2022-09-24T01:37:53;12.32;;;8.88;;
62941;SDS011;49042;47.318;19.874;2022-09-24T01:41:01;21.42;;;9.50;;
62941;SDS011;49042;47.318;19.874;2022-09-24T01:44:04;16.80;;;9.65;;
62941;SDS011;49042;47.318;19.874;2022-09-24T01:47:08;19.17;;;10.02;;
62941;SDS011;49042;47.318;19.874;2022-09-24T01:50:15;19.58;;;9.43;;
62941;SDS011;49042;47.318;19.874;2022-09-24T01:53:19;12.95;;;8.73;;
62941;SDS011;49042;47.318;19.874;2022-09-24T01:59:32;14.68;;;8.73;;
62941;SDS011;49042;47.318;19.874;2022-09-24T02:06:37;17.85;;;9.20;;
62941;SDS011;49042;47.318;19.874;2022-09-24T02:09:47;15.23;;;9.68;;
62941;SDS011;49042;47.318;19.874;2022-09-24T02:12:52;12.40;;;8.70;;
62941;SDS011;49042;47.318;19.874;2022-09-24T02:15:59;12.75;;;8.93;;
62941;SDS011;49042;47.318;19.874;2022-09-24T02:19:10;14.32;;;9.07;;
62941;SDS011;49042;47.318;19.874;2022-09-24T02:22:14;13.45;;;8.48;;
62941;SDS011;49042;47.318;19.874;2022-09-24T02:25:22;10.85;;;7.15;;
62941;SDS011;49042;47.318;19.874;2022-09-24T02:28:32;12.13;;;7.62;;
62941;SDS011;49042;47.318;19.874;2022-09-24T02:31:36;11.63;;;7.53;;
62941;SDS011;49042;47.318;19.874;2022-09-24T02:34:47;12.27;;;7.70;;
62941;SDS011;49042;47.318;19.874;2022-09-24T02:37:53;12.10;;;7.65;;
62941;SDS011;49042;47.318;19.874;2022-09-24T02:40:54;12.68;;;7.37;;
62941;SDS011;49042;47.318;19.874;2022-09-24T02:43:57;11.05;;;7.10;;
62941;SDS011;49042;47.318;19.874;2022-09-24T02:46:59;10.65;;;7.57;;
62941;SDS011;49042;47.318;19.874;2022-09-24T02:50:01;10.52;;;6.80;;
62941;SDS011;49042;47.318;19.874;2022-09-24T02:53:03;10.80;;;7.25;;
62941;SDS011;49042;47.318;19.874;2022-09-24T02:56:05;9.70;;;7.57;;
62941;SDS011;49042;47.318;19.874;2022-09-24T02:59:08;13.73;;;7.28;;
62941;SDS011;49042;47.318;19.874;2022-09-24T03:02:10;12.35;;;7.35;;
62941;SDS011;49042;47.318;19.874;2022-09-24T03:05:13;12.07;;;7.87;;
62941;SDS011;49042;47.318;19.874;2022-09-24T03:08:19;12.68;;;8.63;;
62941;SDS011;49042;47.318;19.874;2022-09-24T03:11:22;12.45;;;8.18;;
62941;SDS011;49042;47.318;19.874;2022-09-24T03:14:24;12.52;;;8.38;;
62941;SDS011;49042;47.318;19.874;2022-09-24T03:17:26;14.45;;;8.95;;
62941;SDS011;49042;47.318;19.874;2022-09-24T03:20:29;12.95;;;8.95;;
62941;SDS011;49042;47.318;19.874;2022-09-24T03:23:31;12.85;;;8.98;;
62941;SDS011;49042;47.318;19.874;2022-09-24T03:26:32;15.27;;;9.65;;
62941;SDS011;49042;47.318;19.874;2022-09-24T03:29:34;13.05;;;8.73;;
62941;SDS011;49042;47.318;19.874;2022-09-24T03:32:55;14.43;;;10.10;;
62941;SDS011;49042;47.318;19.874;2022-09-24T03:35:57;20.12;;;11.12;;
62941;SDS011;49042;47.318;19.874;2022-09-24T03:39:26;32.42;;;17.95;;
62941;SDS011;49042;47.318;19.874;2022-09-24T03:42:27;33.60;;;19.85;;
62941;SDS011;49042;47.318;19.874;2022-09-24T03:45:29;28.38;;;18.55;;
62941;SDS011;49042;47.318;19.874;2022-09-24T03:48:39;30.25;;;19.17;;
62941;SDS011;49042;47.318;19.874;2022-09-24T03:51:41;21.92;;;14.87;;
62941;SDS011;49042;47.318;19.874;2022-09-24T03:54:43;25.25;;;17.73;;
62941;SDS011;49042;47.318;19.874;2022-09-24T03:57:45;36.17;;;25.60;;
62941;SDS011;49042;47.318;19.874;2022-09-24T04:00:47;25.08;;;18.08;;
62941;SDS011;49042;47.318;19.874;2022-09-24T04:03:51;20.73;;;14.93;;
62941;SDS011;49042;47.318;19.874;2022-09-24T04:06:53;19.45;;;13.68;;
62941;SDS011;49042;47.318;19.874;2022-09-24T04:09:58;16.67;;;11.27;;
62941;SDS011;49042;47.318;19.874;2022-09-24T04:13:00;17.27;;;11.75;;
62941;SDS011;49042;47.318;19.874;2022-09-24T04:16:03;16.83;;;11.20;;
62941;SDS011;49042;47.318;19.874;2022-09-24T04:19:05;17.98;;;12.15;;
62941;SDS011;49042;47.318;19.874;2022-09-24T04:22:08;16.50;;;12.45;;
62941;SDS011;49042;47.318;19.874;2022-09-24T04:25:10;15.98;;;10.63;;
62941;SDS011;49042;47.318;19.874;2022-09-24T04:28:15;14.27;;;10.10;;
62941;SDS011;49042;47.318;19.874;2022-09-24T04:31:16;11.98;;;9.10;;
62941;SDS011;49042;47.318;19.874;2022-09-24T04:34:18;11.95;;;9.00;;
62941;SDS011;49042;47.318;19.874;2022-09-24T04:37:21;15.75;;;11.68;;
62941;SDS011;49042;47.318;19.874;2022-09-24T04:40:23;20.67;;;14.68;;
62941;SDS011;49042;47.318;19.874;2022-09-24T04:43:25;20.88;;;12.73;;
62941;SDS011;49042;47.318;19.874;2022-09-24T04:46:26;16.70;;;11.75;;
62941;SDS011;49042;47.318;19.874;2022-09-24T04:49:28;12.88;;;9.88;;
62941;SDS011;49042;47.318;19.874;2022-09-24T04:52:30;16.17;;;12.85;;
62941;SDS011;49042;47.318;19.874;2022-09-24T04:55:33;19.73;;;12.20;;
62941;SDS011;49042;47.318;19.874;2022-09-24T04:58:35;15.90;;;11.85;;
62941;SDS011;49042;47.318;19.874;2022-09-24T05:01:38;18.90;;;11.38;;
62941;SDS011;49042;47.318;19.874;2022-09-24T05:04:39;14.20;;;9.85;;
62941;SDS011;49042;47.318;19.874;2022-09-24T05:07:41;12.82;;;9.93;;
62941;SDS011;49042;47.318;19.874;2022-09-24T05:10:45;13.43;;;10.68;;
62941;SDS011;49042;47.318;19.874;2022-09-24T05:13:47;15.23;;;11.20;;
62941;SDS011;49042;47.318;19.874;2022-09-24T05:16:48;23.00;;;11.10;;
62941;SDS011;49042;47.318;19.874;2022-09-24T05:19:50;15.57;;;11.00;;
62941;SDS011;49042;47.318;19.874;2022-09-24T05:22:52;23.23;;;16.65;;
62941;SDS011;49042;47.318;19.874;2022-09-24T05:25:54;31.37;;;21.20;;
62941;SDS011;49042;47.318;19.874;2022-09-24T05:29:14;15.00;;;10.73;;
62941;SDS011;49042;47.318;19.874;2022-09-24T05:32:17;23.52;;;9.45;;
62941;SDS011;49042;47.318;19.874;2022-09-24T05:35:22;16.33;;;11.40;;
62941;SDS011;49042;47.318;19.874;2022-09-24T05:38:24;24.67;;;13.35;;
62941;SDS011;49042;47.318;19.874;2022-09-24T05:41:26;50.40;;;14.13;;
62941;SDS011;49042;47.318;19.874;2022-09-24T05:44:28;25.67;;;13.32;;
62941;SDS011;49042;47.318;19.874;2022-09-24T05:47:31;24.10;;;10.88;;
62941;SDS011;49042;47.318;19.874;2022-09-24T05:50:33;21.25;;;12.20;;
62941;SDS011;49042;47.318;19.874;2022-09-24T05:53:35;25.85;;;11.18;;
62941;SDS011;49042;47.318;19.874;2022-09-24T05:56:37;16.55;;;10.48;;
62941;SDS011;49042;47.318;19.874;2022-09-24T05:59:39;23.83;;;12.43;;
62941;SDS011;49042;47.318;19.874;2022-09-24T06:02:41;18.42;;;12.50;;
62941;SDS011;49042;47.318;19.874;2022-09-24T06:05:43;15.23;;;11.05;;
62941;SDS011;49042;47.318;19.874;2022-09-24T06:08:46;18.05;;;11.65;;
62941;SDS011;49042;47.318;19.874;2022-09-24T06:11:48;22.35;;;12.48;;
62941;SDS011;49042;47.318;19.874;2022-09-24T06:14:51;20.27;;;13.75;;
62941;SDS011;49042;47.318;19.874;2022-09-24T06:17:54;33.25;;;20.77;;
62941;SDS011;49042;47.318;19.874;2022-09-24T06:21:00;24.25;;;15.27;;
62941;SDS011;49042;47.318;19.874;2022-09-24T06:24:05;18.37;;;11.88;;
62941;SDS011;49042;47.318;19.874;2022-09-24T06:27:07;16.52;;;11.40;;
62941;SDS011;49042;47.318;19.874;2022-09-24T06:30:09;16.92;;;10.98;;
62941;SDS011;49042;47.318;19.874;2022-09-24T06:33:14;15.40;;;11.02;;
62941;SDS011;49042;47.318;19.874;2022-09-24T06:36:17;15.50;;;11.07;;
62941;SDS011;49042;47.318;19.874;2022-09-24T06:39:19;15.25;;;10.82;;
62941;SDS011;49042;47.318;19.874;2022-09-24T06:42:22;16.17;;;11.27;;
62941;SDS011;49042;47.318;19.874;2022-09-24T06:45:24;15.52;;;11.70;;
62941;SDS011;49042;47.318;19.874;2022-09-24T06:48:30;19.12;;;11.40;;
62941;SDS011;49042;47.318;19.874;2022-09-24T06:51:32;17.20;;;11.55;;
62941;SDS011;49042;47.318;19.874;2022-09-24T06:54:33;16.02;;;10.27;;
62941;SDS011;49042;47.318;19.874;2022-09-24T06:57:35;25.10;;;11.77;;
62941;SDS011;49042;47.318;19.874;2022-09-24T07:00:37;25.42;;;15.73;;
62941;SDS011;49042;47.318;19.874;2022-09-24T07:03:40;26.37;;;15.35;;
62941;SDS011;49042;47.318;19.874;2022-09-24T07:06:42;20.52;;;14.18;;
62941;SDS011;49042;47.318;19.874;2022-09-24T07:10:05;24.45;;;15.00;;
62941;SDS011;49042;47.318;19.874;2022-09-24T07:13:08;20.30;;;14.23;;
62941;SDS011;49042;47.318;19.874;2022-09-24T07:16:11;20.40;;;14.32;;
62941;SDS011;49042;47.318;19.874;2022-09-24T07:19:26;22.62;;;13.62;;
62941;SDS011;49042;47.318;19.874;2022-09-24T07:22:30;19.00;;;11.40;;
62941;SDS011;49042;47.318;19.874;2022-09-24T07:25:32;24.80;;;11.88;;
62941;SDS011;49042;47.318;19.874;2022-09-24T07:28:36;19.17;;;11.52;;
62941;SDS011;49042;47.318;19.874;2022-09-24T07:31:38;19.40;;;11.68;;
62941;SDS011;49042;47.318;19.874;2022-09-24T07:34:40;17.73;;;11.43;;
62941;SDS011;49042;47.318;19.874;2022-09-24T07:37:42;17.20;;;11.80;;
62941;SDS011;49042;47.318;19.874;2022-09-24T07:40:43;16.70;;;11.30;;
62941;SDS011;49042;47.318;19.874;2022-09-24T07:43:45;25.60;;;10.73;;
62941;SDS011;49042;47.318;19.874;2022-09-24T07:46:51;15.00;;;9.50;;
62941;SDS011;49042;47.318;19.874;2022-09-24T07:49:52;17.25;;;11.57;;
62941;SDS011;49042;47.318;19.874;2022-09-24T07:52:54;19.48;;;11.40;;
62941;SDS011;49042;47.318;19.874;2022-09-24T07:55:57;25.12;;;11.90;;
62941;SDS011;49042;47.318;19.874;2022-09-24T07:59:00;23.42;;;13.25;;
62941;SDS011;49042;47.318;19.874;2022-09-24T08:02:01;28.77;;;15.10;;
62941;SDS011;49042;47.318;19.874;2022-09-24T08:05:04;13.95;;;8.25;;
62941;SDS011;49042;47.318;19.874;2022-09-24T08:08:06;8.95;;;6.72;;
62941;SDS011;49042;47.318;19.874;2022-09-24T08:11:08;9.75;;;6.85;;
62941;SDS011;49042;47.318;19.874;2022-09-24T08:14:13;22.17;;;7.95;;
62941;SDS011;49042;47.318;19.874;2022-09-24T08:17:15;13.93;;;8.60;;
62941;SDS011;49042;47.318;19.874;2022-09-24T08:20:17;10.75;;;7.60;;
62941;SDS011;49042;47.318;19.874;2022-09-24T08:23:19;15.18;;;8.13;;
62941;SDS011;49042;47.318;19.874;2022-09-24T08:26:21;18.67;;;8.80;;
62941;SDS011;49042;47.318;19.874;2022-09-24T08:29:23;11.52;;;6.95;;
62941;SDS011;49042;47.318;19.874;2022-09-24T08:32:25;11.38;;;6.90;;
62941;SDS011;49042;47.318;19.874;2022-09-24T08:35:29;9.43;;;6.78;;
62941;SDS011;49042;47.318;19.874;2022-09-24T08:38:31;14.68;;;7.40;;
62941;SDS011;49042;47.318;19.874;2022-09-24T08:41:45;9.82;;;6.72;;
62941;SDS011;49042;47.318;19.874;2022-09-24T08:44:53;9.75;;;6.25;;
62941;SDS011;49042;47.318;19.874;2022-09-24T08:48:18;20.20;;;6.37;;
62941;SDS011;49042;47.318;19.874;2022-09-24T08:51:26;11.60;;;6.32;;
62941;SDS011;49042;47.318;19.874;2022-09-24T08:54:36;11.70;;;5.85;;
62941;SDS011;49042;47.318;19.874;2022-09-24T08:57:43;8.15;;;5.68;;
62941;SDS011;49042;47.318;19.874;2022-09-24T09:07:48;15.93;;;7.10;;
62941;SDS011;49042;47.318;19.874;2022-09-24T09:11:02;10.82;;;6.60;;
62941;SDS011;49042;47.318;19.874;2022-09-24T09:23:31;10.25;;;5.93;;
62941;SDS011;49042;47.318;19.874;2022-09-24T09:26:38;8.60;;;5.82;;
62941;SDS011;49042;47.318;19.874;2022-09-24T09:29:41;13.85;;;6.35;;
62941;SDS011;49042;47.318;19.874;2022-09-24T09:43:31;7.43;;;3.57;;
62941;SDS011;49042;47.318;19.874;2022-09-24T09:46:33;6.20;;;3.00;;
62941;SDS011;49042;47.318;19.874;2022-09-24T09:49:42;3.75;;;2.90;;
62941;SDS011;49042;47.318;19.874;2022-09-24T09:52:47;4.85;;;2.95;;
62941;SDS011;49042;47.318;19.874;2022-09-24T09:55:59;3.37;;;2.40;;
62941;SDS011;49042;47.318;19.874;2022-09-24T09:59:15;7.97;;;2.70;;
62941;SDS011;49042;47.318;19.874;2022-09-24T10:02:30;6.00;;;3.10;;
62941;SDS011;49042;47.318;19.874;2022-09-24T10:05:35;9.02;;;2.45;;
62941;SDS011;49042;47.318;19.874;2022-09-24T10:08:37;4.22;;;2.12;;
62941;SDS011;49042;47.318;19.874;2022-09-24T10:11:40;4.15;;;2.55;;
62941;SDS011;49042;47.318;19.874;2022-09-24T10:14:42;2.90;;;2.22;;
62941;SDS011;49042;47.318;19.874;2022-09-24T10:17:45;4.70;;;2.62;;
62941;SDS011;49042;47.318;19.874;2022-09-24T10:20:50;4.03;;;2.20;;
62941;SDS011;49042;47.318;19.874;2022-09-24T10:23:56;5.30;;;2.45;;
62941;SDS011;49042;47.318;19.874;2022-09-24T10:27:08;3.60;;;2.25;;
62941;SDS011;49042;47.318;19.874;2022-09-24T10:30:15;5.75;;;1.65;;
62941;SDS011;49042;47.318;19.874;2022-09-24T10:33:36;4.03;;;2.53;;
62941;SDS011;49042;47.318;19.874;2022-09-24T10:36:48;3.40;;;2.25;;
62941;SDS011;49042;47.318;19.874;2022-09-24T10:43:16;2.12;;;1.55;;
62941;SDS011;49042;47.318;19.874;2022-09-24T10:53:12;2.90;;;1.90;;
62941;SDS011;49042;47.318;19.874;2022-09-24T11:13:56;6.97;;;3.62;;
62941;SDS011;49042;47.318;19.874;2022-09-24T11:20:37;3.13;;;1.90;;
62941;SDS011;49042;47.318;19.874;2022-09-24T11:23:54;4.53;;;1.52;;
62941;SDS011;49042;47.318;19.874;2022-09-24T11:37:46;1.73;;;1.53;;
62941;SDS011;49042;47.318;19.874;2022-09-24T11:41:06;3.55;;;1.85;;
62941;SDS011;49042;47.318;19.874;2022-09-24T11:44:45;2.53;;;1.75;;
62941;SDS011;49042;47.318;19.874;2022-09-24T11:51:59;4.12;;;2.05;;
62941;SDS011;49042;47.318;19.874;2022-09-24T11:55:30;1.58;;;1.42;;
62941;SDS011;49042;47.318;19.874;2022-09-24T11:58:51;2.47;;;1.50;;
62941;SDS011;49042;47.318;19.874;2022-09-24T12:02:00;1.92;;;1.50;;
62941;SDS011;49042;47.318;19.874;2022-09-24T12:08:41;2.85;;;1.52;;
62941;SDS011;49042;47.318;19.874;2022-09-24T12:12:07;2.35;;;1.40;;
62941;SDS011;49042;47.318;19.874;2022-09-24T12:15:26;17.50;;;2.33;;
62941;SDS011;49042;47.318;19.874;2022-09-24T12:18:44;8.73;;;2.35;;
62941;SDS011;49042;47.318;19.874;2022-09-24T12:21:51;4.75;;;1.70;;
62941;SDS011;49042;47.318;19.874;2022-09-24T12:24:56;1.67;;;1.27;;
62941;SDS011;49042;47.318;19.874;2022-09-24T12:28:00;1.60;;;1.40;;
62941;SDS011;49042;47.318;19.874;2022-09-24T12:31:18;4.45;;;1.73;;
62941;SDS011;49042;47.318;19.874;2022-09-24T12:34:48;7.45;;;1.62;;
62941;SDS011;49042;47.318;19.874;2022-09-24T12:38:12;7.32;;;1.58;;
62941;SDS011;49042;47.318;19.874;2022-09-24T12:41:32;1.40;;;1.23;;
62941;SDS011;49042;47.318;19.874;2022-09-24T12:44:42;2.87;;;1.40;;
62941;SDS011;49042;47.318;19.874;2022-09-24T12:47:56;2.75;;;1.42;;
62941;SDS011;49042;47.318;19.874;2022-09-24T12:51:03;2.00;;;1.45;;
62941;SDS011;49042;47.318;19.874;2022-09-24T12:54:21;5.45;;;1.20;;
62941;SDS011;49042;47.318;19.874;2022-09-24T12:57:29;2.42;;;1.60;;
62941;SDS011;49042;47.318;19.874;2022-09-24T13:00:42;2.15;;;1.40;;
62941;SDS011;49042;47.318;19.874;2022-09-24T13:03:59;7.90;;;1.40;;
62941;SDS011;49042;47.318;19.874;2022-09-24T13:07:24;1.52;;;1.27;;
62941;SDS011;49042;47.318;19.874;2022-09-24T13:10:34;2.08;;;1.40;;
62941;SDS011;49042;47.318;19.874;2022-09-24T13:13:37;3.78;;;1.40;;
62941;SDS011;49042;47.318;19.874;2022-09-24T13:16:47;2.08;;;1.35;;
62941;SDS011;49042;47.318;19.874;2022-09-24T13:19:55;2.25;;;1.70;;
62941;SDS011;49042;47.318;19.874;2022-09-24T13:23:10;2.58;;;1.50;;
62941;SDS011;49042;47.318;19.874;2022-09-24T13:29:24;5.18;;;1.42;;
62941;SDS011;49042;47.318;19.874;2022-09-24T13:32:39;2.42;;;1.75;;
62941;SDS011;49042;47.318;19.874;2022-09-24T13:35:49;3.60;;;1.70;;
62941;SDS011;49042;47.318;19.874;2022-09-24T13:39:12;2.90;;;1.50;;
62941;SDS011;49042;47.318;19.874;2022-09-24T13:46:15;2.83;;;1.87;;
62941;SDS011;49042;47.318;19.874;2022-09-24T13:49:19;5.03;;;1.67;;
62941;SDS011;49042;47.318;19.874;2022-09-24T13:55:43;3.05;;;1.40;;
62941;SDS011;49042;47.318;19.874;2022-09-24T13:58:48;1.90;;;1.52;;
62941;SDS011;49042;47.318;19.874;2022-09-24T14:01:51;5.12;;;3.10;;
62941;SDS011;49042;47.318;19.874;2022-09-24T14:04:54;4.30;;;2.22;;
62941;SDS011;49042;47.318;19.874;2022-09-24T14:08:00;7.57;;;1.60;;
62941;SDS011;49042;47.318;19.874;2022-09-24T14:14:20;4.97;;;2.00;;
62941;SDS011;49042;47.318;19.874;2022-09-24T14:20:30;2.10;;;1.52;;
62941;SDS011;49042;47.318;19.874;2022-09-24T14:26:53;25.30;;;14.63;;
62941;SDS011;49042;47.318;19.874;2022-09-24T14:29:59;6.82;;;4.50;;
62941;SDS011;49042;47.318;19.874;2022-09-24T14:33:06;9.50;;;4.90;;
62941;SDS011;49042;47.318;19.874;2022-09-24T14:36:14;7.05;;;2.25;;
62941;SDS011;49042;47.318;19.874;2022-09-24T14:39:17;12.02;;;3.72;;
62941;SDS011;49042;47.318;19.874;2022-09-24T14:45:39;11.30;;;3.30;;
62941;SDS011;49042;47.318;19.874;2022-09-24T14:48:41;7.20;;;2.25;;
62941;SDS011;49042;47.318;19.874;2022-09-24T14:55:10;15.63;;;7.12;;
62941;SDS011;49042;47.318;19.874;2022-09-24T14:58:31;3.45;;;2.22;;
62941;SDS011;49042;47.318;19.874;2022-09-24T15:01:37;5.37;;;2.28;;
62941;SDS011;49042;47.318;19.874;2022-09-24T15:04:39;14.85;;;3.83;;
62941;SDS011;49042;47.318;19.874;2022-09-24T15:07:46;1.92;;;1.73;;
62941;SDS011;49042;47.318;19.874;2022-09-24T15:10:55;2.25;;;1.87;;
62941;SDS011;49042;47.318;19.874;2022-09-24T15:14:20;3.65;;;1.70;;
62941;SDS011;49042;47.318;19.874;2022-09-24T15:17:29;3.40;;;1.58;;
62941;SDS011;49042;47.318;19.874;2022-09-24T15:20:32;6.87;;;1.80;;
62941;SDS011;49042;47.318;19.874;2022-09-24T15:23:34;6.55;;;1.50;;
62941;SDS011;49042;47.318;19.874;2022-09-24T15:26:37;2.05;;;1.48;;
62941;SDS011;49042;47.318;19.874;2022-09-24T15:29:41;2.50;;;1.90;;
62941;SDS011;49042;47.318;19.874;2022-09-24T15:32:43;6.95;;;2.00;;
62941;SDS011;49042;47.318;19.874;2022-09-24T15:35:44;2.45;;;1.90;;
62941;SDS011;49042;47.318;19.874;2022-09-24T15:38:47;2.53;;;1.95;;
62941;SDS011;49042;47.318;19.874;2022-09-24T15:41:50;6.40;;;2.10;;
62941;SDS011;49042;47.318;19.874;2022-09-24T15:44:52;2.75;;;1.73;;
62941;SDS011;49042;47.318;19.874;2022-09-24T15:47:55;2.45;;;1.75;;
62941;SDS011;49042;47.318;19.874;2022-09-24T15:50:56;4.35;;;2.55;;
62941;SDS011;49042;47.318;19.874;2022-09-24T15:53:58;3.95;;;2.22;;
62941;SDS011;49042;47.318;19.874;2022-09-24T15:57:00;2.95;;;1.90;;
62941;SDS011;49042;47.318;19.874;2022-09-24T16:00:03;3.60;;;2.10;;
62941;SDS011;49042;47.318;19.874;2022-09-24T16:03:05;6.70;;;3.55;;
62941;SDS011;49042;47.318;19.874;2022-09-24T16:06:08;10.75;;;2.37;;
62941;SDS011;49042;47.318;19.874;2022-09-24T16:09:11;2.95;;;2.05;;
62941;SDS011;49042;47.318;19.874;2022-09-24T16:12:13;9.43;;;3.25;;
62941;SDS011;49042;47.318;19.874;2022-09-24T16:15:16;8.80;;;5.22;;
62941;SDS011;49042;47.318;19.874;2022-09-24T16:18:19;9.18;;;3.70;;
62941;SDS011;49042;47.318;19.874;2022-09-24T16:21:22;9.45;;;3.00;;
62941;SDS011;49042;47.318;19.874;2022-09-24T16:24:24;3.85;;;2.55;;
62941;SDS011;49042;47.318;19.874;2022-09-24T16:27:26;3.37;;;2.30;;
62941;SDS011;49042;47.318;19.874;2022-09-24T16:30:28;6.10;;;3.05;;
62941;SDS011;49042;47.318;19.874;2022-09-24T16:33:30;5.37;;;3.03;;
62941;SDS011;49042;47.318;19.874;2022-09-24T16:36:31;3.83;;;2.60;;
62941;SDS011;49042;47.318;19.874;2022-09-24T16:39:33;5.40;;;2.45;;
62941;SDS011;49042;47.318;19.874;2022-09-24T16:42:35;3.50;;;2.25;;
62941;SDS011;49042;47.318;19.874;2022-09-24T16:45:37;5.62;;;2.20;;
62941;SDS011;49042;47.318;19.874;2022-09-24T16:48:38;5.60;;;2.25;;
62941;SDS011;49042;47.318;19.874;2022-09-24T16:51:40;4.78;;;2.33;;
62941;SDS011;49042;47.318;19.874;2022-09-24T16:54:42;4.95;;;2.33;;
62941;SDS011;49042;47.318;19.874;2022-09-24T16:57:44;8.13;;;2.12;;
62941;SDS011;49042;47.318;19.874;2022-09-24T17:00:46;2.92;;;2.25;;
62941;SDS011;49042;47.318;19.874;2022-09-24T17:03:51;4.25;;;2.10;;
62941;SDS011;49042;47.318;19.874;2022-09-24T17:06:55;3.03;;;1.95;;
62941;SDS011;49042;47.318;19.874;2022-09-24T17:09:57;6.85;;;4.03;;
62941;SDS011;49042;47.318;19.874;2022-09-24T17:13:16;4.47;;;2.62;;
62941;SDS011;49042;47.318;19.874;2022-09-24T17:16:18;10.43;;;4.93;;
62941;SDS011;49042;47.318;19.874;2022-09-24T17:19:21;9.77;;;4.20;;
62941;SDS011;49042;47.318;19.874;2022-09-24T17:22:22;18.42;;;4.35;;
62941;SDS011;49042;47.318;19.874;2022-09-24T17:25:24;13.93;;;4.85;;
62941;SDS011;49042;47.318;19.874;2022-09-24T17:28:31;10.75;;;3.87;;
62941;SDS011;49042;47.318;19.874;2022-09-24T17:31:34;6.47;;;3.62;;
62941;SDS011;49042;47.318;19.874;2022-09-24T17:34:36;9.40;;;3.40;;
62941;SDS011;49042;47.318;19.874;2022-09-24T17:37:42;5.72;;;3.72;;
62941;SDS011;49042;47.318;19.874;2022-09-24T17:40:55;15.95;;;3.60;;
62941;SDS011;49042;47.318;19.874;2022-09-24T17:43:58;13.95;;;5.07;;
62941;SDS011;49042;47.318;19.874;2022-09-24T17:47:01;9.35;;;4.70;;
62941;SDS011;49042;47.318;19.874;2022-09-24T17:50:03;8.13;;;4.12;;
62941;SDS011;49042;47.318;19.874;2022-09-24T17:53:05;10.57;;;3.72;;
62941;SDS011;49042;47.318;19.874;2022-09-24T17:56:08;11.82;;;5.47;;
62941;SDS011;49042;47.318;19.874;2022-09-24T17:59:12;12.85;;;5.45;;
62941;SDS011;49042;47.318;19.874;2022-09-24T18:02:14;14.63;;;5.97;;
62941;SDS011;49042;47.318;19.874;2022-09-24T18:05:16;10.52;;;5.85;;
62941;SDS011;49042;47.318;19.874;2022-09-24T18:08:18;15.40;;;6.32;;
62941;SDS011;49042;47.318;19.874;2022-09-24T18:11:24;11.57;;;5.78;;
62941;SDS011;49042;47.318;19.874;2022-09-24T18:14:27;9.68;;;4.85;;
62941;SDS011;49042;47.318;19.874;2022-09-24T18:17:29;6.78;;;4.45;;
62941;SDS011;49042;47.318;19.874;2022-09-24T18:20:30;9.18;;;4.40;;
62941;SDS011;49042;47.318;19.874;2022-09-24T18:23:35;8.98;;;3.83;;
62941;SDS011;49042;47.318;19.874;2022-09-24T18:26:38;4.82;;;3.20;;
62941;SDS011;49042;47.318;19.874;2022-09-24T18:29:40;8.90;;;3.12;;
62941;SDS011;49042;47.318;19.874;2022-09-24T18:32:44;3.17;;;2.58;;
62941;SDS011;49042;47.318;19.874;2022-09-24T18:35:46;4.25;;;2.55;;
62941;SDS011;49042;47.318;19.874;2022-09-24T18:38:48;5.72;;;2.72;;
62941;SDS011;49042;47.318;19.874;2022-09-24T18:41:49;3.90;;;2.53;;
62941;SDS011;49042;47.318;19.874;2022-09-24T18:44:51;5.57;;;2.67;;
62941;SDS011;49042;47.318;19.874;2022-09-24T18:47:53;5.82;;;2.67;;
62941;SDS011;49042;47.318;19.874;2022-09-24T18:50:55;5.82;;;3.10;;
62941;SDS011;49042;47.318;19.874;2022-09-24T18:54:02;8.02;;;2.80;;
62941;SDS011;49042;47.318;19.874;2022-09-24T18:57:22;4.97;;;2.97;;
62941;SDS011;49042;47.318;19.874;2022-09-24T19:00:24;4.68;;;2.87;;
62941;SDS011;49042;47.318;19.874;2022-09-24T19:03:44;3.55;;;2.83;;
62941;SDS011;49042;47.318;19.874;2022-09-24T19:06:46;4.65;;;3.17;;
62941;SDS011;49042;47.318;19.874;2022-09-24T19:09:48;4.95;;;3.10;;
62941;SDS011;49042;47.318;19.874;2022-09-24T19:12:50;5.78;;;2.80;;
62941;SDS011;49042;47.318;19.874;2022-09-24T19:15:55;3.95;;;2.72;;
62941;SDS011;49042;47.318;19.874;2022-09-24T19:18:57;7.10;;;2.97;;
62941;SDS011;49042;47.318;19.874;2022-09-24T19:22:00;7.55;;;3.03;;
62941;SDS011;49042;47.318;19.874;2022-09-24T19:25:02;4.05;;;3.10;;
62941;SDS011;49042;47.318;19.874;2022-09-24T19:28:04;3.35;;;2.62;;
62941;SDS011;49042;47.318;19.874;2022-09-24T19:31:12;5.87;;;2.55;;
62941;SDS011;49042;47.318;19.874;2022-09-24T19:34:16;10.82;;;3.15;;
62941;SDS011;49042;47.318;19.874;2022-09-24T19:37:20;4.85;;;2.75;;
62941;SDS011;49042;47.318;19.874;2022-09-24T19:40:23;9.43;;;2.83;;
62941;SDS011;49042;47.318;19.874;2022-09-24T19:43:25;5.18;;;2.92;;
62941;SDS011;49042;47.318;19.874;2022-09-24T19:46:27;4.78;;;2.70;;
62941;SDS011;49042;47.318;19.874;2022-09-24T19:49:31;4.37;;;2.50;;
62941;SDS011;49042;47.318;19.874;2022-09-24T19:52:33;3.60;;;2.62;;
62941;SDS011;49042;47.318;19.874;2022-09-24T19:55:35;5.12;;;2.62;;
62941;SDS011;49042;47.318;19.874;2022-09-24T19:58:37;8.55;;;2.75;;
62941;SDS011;49042;47.318;19.874;2022-09-24T20:01:39;2.85;;;2.30;;
62941;SDS011;49042;47.318;19.874;2022-09-24T20:04:45;6.32;;;3.00;;
62941;SDS011;49042;47.318;19.874;2022-09-24T20:07:46;3.45;;;2.70;;
62941;SDS011;49042;47.318;19.874;2022-09-24T20:10:49;5.20;;;2.70;;